createdAt,value
2017-10-31T05:42:35.476Z,2
2017-10-31T05:49:36.681Z,5
2017-10-31T05:52:06.861Z,8
2017-10-31T05:53:36.931Z,10
2017-10-31T05:55:07.225Z,13
2017-10-31T05:59:07.345Z,15
2017-10-31T06:01:07.428Z,17
2017-10-31T06:01:37.490Z,20
2017-10-31T06:02:37.542Z,22
2017-10-31T06:03:07.508Z,25
2017-10-31T06:03:37.536Z,28
2017-10-31T06:04:07.585Z,32
2017-10-31T06:04:37.542Z,35
2017-10-31T06:05:08.604Z,40
2017-10-31T06:05:38.618Z,43
2017-10-31T06:06:08.663Z,47
2017-10-31T06:06:38.683Z,55
2017-10-31T06:07:08.705Z,58
2017-10-31T06:07:38.707Z,62
2017-10-31T06:08:08.703Z,67
2017-10-31T06:08:38.723Z,73
2017-10-31T06:09:08.774Z,77
2017-10-31T06:09:38.771Z,80
2017-10-31T06:10:08.815Z,85
2017-10-31T06:10:38.766Z,90
2017-10-31T06:11:09.782Z,92
2017-10-31T06:11:39.799Z,95
2017-10-31T06:12:09.813Z,100
2017-10-31T06:12:39.827Z,105
2017-10-31T06:13:09.846Z,110
2017-10-31T06:13:39.868Z,115
2017-10-31T06:14:09.889Z,120
2017-10-31T06:14:39.906Z,125
2017-10-31T06:15:09.940Z,130
2017-10-31T06:15:39.968Z,137
2017-10-31T06:16:10.017Z,145
2017-10-31T06:16:40.006Z,155
2017-10-31T06:17:10.021Z,160
2017-10-31T06:17:40.117Z,165
2017-10-31T06:18:10.171Z,172
2017-10-31T06:18:40.077Z,182
2017-10-31T06:19:10.150Z,190
2017-10-31T06:19:40.119Z,200
2017-10-31T06:20:10.142Z,208
2017-10-31T06:20:40.169Z,215
2017-10-31T06:21:11.167Z,220
2017-10-31T06:21:41.186Z,223
2017-10-31T06:22:11.248Z,225
2017-10-31T06:22:41.298Z,227
2017-10-31T06:26:41.486Z,225
2017-10-31T06:28:11.508Z,227
2017-10-31T06:28:41.545Z,233
2017-10-31T06:29:11.614Z,235
2017-10-31T06:29:41.587Z,240
2017-10-31T06:30:11.609Z,245
2017-10-31T06:30:41.609Z,247
2017-10-31T06:31:12.054Z,250
2017-10-31T06:32:11.706Z,247
2017-10-31T06:32:41.691Z,245
2017-10-31T06:33:11.711Z,242
2017-10-31T06:33:41.725Z,240
2017-10-31T06:35:12.722Z,245
2017-10-31T06:35:42.726Z,253
2017-10-31T06:36:12.747Z,262
2017-10-31T06:36:42.777Z,270
2017-10-31T06:37:12.839Z,280
2017-10-31T06:37:42.819Z,290
2017-10-31T06:38:12.822Z,300
2017-10-31T06:38:42.841Z,313
2017-10-31T06:39:12.853Z,320
2017-10-31T06:40:12.897Z,325
2017-10-31T06:40:42.911Z,332
2017-10-31T06:41:12.941Z,337
2017-10-31T06:41:42.962Z,347
2017-10-31T06:42:13.023Z,362
2017-10-31T06:42:42.984Z,377
2017-10-31T06:43:13.021Z,403
2017-10-31T06:43:43.017Z,433
2017-10-31T06:44:13.061Z,448
2017-10-31T06:44:43.057Z,437
2017-10-31T06:45:13.095Z,425
2017-10-31T06:45:43.092Z,422
2017-10-31T06:46:13.155Z,430
2017-10-31T06:46:43.158Z,440
2017-10-31T06:47:13.421Z,448
2017-10-31T06:48:43.237Z,455
2017-10-31T06:49:13.272Z,463
2017-10-31T06:49:43.263Z,470
2017-10-31T06:50:13.304Z,480
2017-10-31T06:50:43.362Z,503
2017-10-31T06:51:14.393Z,530
2017-10-31T06:51:44.353Z,553
2017-10-31T06:52:14.444Z,565
2017-10-31T06:52:44.422Z,575
2017-10-31T06:53:14.450Z,595
2017-10-31T06:53:44.479Z,613
2017-10-31T06:54:14.467Z,632
2017-10-31T06:54:44.459Z,653
2017-10-31T06:55:15.506Z,673
2017-10-31T06:55:45.488Z,692
2017-10-31T06:56:15.561Z,705
2017-10-31T06:57:45.574Z,715
2017-10-31T06:58:15.571Z,712
2017-10-31T06:58:45.639Z,722
2017-10-31T06:59:15.607Z,742
2017-10-31T06:59:45.618Z,737
2017-10-31T07:00:15.651Z,740
2017-10-31T07:00:45.666Z,750
2017-10-31T07:01:15.694Z,773
2017-10-31T07:01:45.860Z,778
2017-10-31T07:02:15.717Z,787
2017-10-31T07:02:45.762Z,805
2017-10-31T07:03:15.748Z,823
2017-10-31T07:03:45.780Z,835
2017-10-31T07:04:15.801Z,850
2017-10-31T07:04:45.802Z,853
2017-10-31T07:05:15.828Z,857
2017-10-31T07:05:45.884Z,868
2017-10-31T07:06:15.866Z,875
2017-10-31T07:06:45.886Z,887
2017-10-31T07:07:15.928Z,928
2017-10-31T07:07:45.973Z,960
2017-10-31T07:08:15.991Z,977
2017-10-31T07:08:45.964Z,998
2017-10-31T07:09:15.982Z,1022
2017-10-31T07:09:46.440Z,1045
2017-10-31T07:10:16.021Z,1060
2017-10-31T07:10:46.032Z,1085
2017-10-31T07:11:17.157Z,1102
2017-10-31T07:11:47.076Z,1115
2017-10-31T07:12:17.092Z,1118
2017-10-31T07:12:47.180Z,1115
2017-10-31T07:13:17.176Z,1100
2017-10-31T07:13:47.140Z,1088
2017-10-31T07:14:17.191Z,1082
2017-10-31T07:14:47.199Z,1085
2017-10-31T07:15:18.252Z,1090
2017-10-31T07:15:48.243Z,1102
2017-10-31T07:16:18.681Z,1115
2017-10-31T07:16:48.702Z,1112
2017-10-31T07:17:18.779Z,1093
2017-10-31T07:17:48.764Z,1065
2017-10-31T07:18:18.758Z,1072
2017-10-31T07:18:48.807Z,1120
2017-10-31T07:19:18.789Z,1187
2017-10-31T07:19:48.812Z,1247
2017-10-31T07:20:18.835Z,1273
2017-10-31T07:20:48.838Z,1288
2017-10-31T07:21:18.868Z,1320
2017-10-31T07:21:48.878Z,1365
2017-10-31T07:22:18.956Z,1438
2017-10-31T07:22:48.956Z,1555
2017-10-31T07:23:19.931Z,1650
2017-10-31T07:23:49.949Z,1755
2017-10-31T07:24:19.984Z,1595
2017-10-31T07:24:49.985Z,1545
2017-10-31T07:25:19.998Z,1508
2017-10-31T07:25:50.029Z,1453
2017-10-31T07:26:20.058Z,1427
2017-10-31T07:26:50.052Z,1430
2017-10-31T07:27:20.125Z,1465
2017-10-31T07:27:50.170Z,1508
2017-10-31T07:28:08.852Z,1532
2017-10-31T07:28:37.945Z,1605
2017-10-31T07:29:08.962Z,1708
2017-10-31T07:29:38.023Z,1795
2017-10-31T07:30:08.982Z,1877
2017-10-31T07:30:38.098Z,1980
2017-10-31T07:31:09.089Z,2080
2017-10-31T07:31:38.190Z,2090
2017-10-31T07:32:09.158Z,2048
2017-10-31T07:32:38.318Z,1987
2017-10-31T07:33:09.292Z,1925
2017-10-31T07:33:38.371Z,1873
2017-10-31T07:34:09.279Z,1832
2017-10-31T07:34:38.461Z,1810
2017-10-31T07:35:09.420Z,1792
2017-10-31T07:35:38.560Z,1778
2017-10-31T07:36:09.500Z,1798
2017-10-31T07:36:38.635Z,1832
2017-10-31T07:37:09.548Z,1920
2017-10-31T07:37:38.695Z,2038
2017-10-31T07:38:09.649Z,2130
2017-10-31T07:38:38.734Z,2177
2017-10-31T07:39:38.876Z,2160
2017-10-31T07:40:38.955Z,2205
2017-10-31T07:41:09.875Z,2293
2017-10-31T07:41:39.013Z,2368
2017-10-31T07:42:09.879Z,2417
2017-10-31T07:42:39.098Z,2495
2017-10-31T07:43:10.049Z,2543
2017-10-31T07:43:39.188Z,2582
2017-10-31T07:44:10.042Z,2615
2017-10-31T07:44:39.249Z,2633
2017-10-31T07:45:10.209Z,2737
2017-10-31T07:45:39.334Z,2840
2017-10-31T07:46:10.256Z,2852
2017-10-31T07:46:39.382Z,2835
2017-10-31T07:47:10.311Z,2842
2017-10-31T07:47:39.486Z,2908
2017-10-31T07:48:10.424Z,2930
2017-10-31T07:48:39.566Z,2887
2017-10-31T07:49:10.513Z,3040
2017-10-31T07:49:39.621Z,3883
2017-10-31T07:50:10.523Z,3682
2017-10-31T07:50:39.736Z,3493
2017-10-31T07:51:10.619Z,3650
2017-10-31T07:51:39.749Z,3248
2017-10-31T07:52:10.738Z,3300
2017-10-31T07:52:39.852Z,3515
2017-10-31T07:53:10.794Z,3605
2017-10-31T07:53:39.899Z,3810
2017-10-31T07:54:10.829Z,4200
2017-10-31T07:54:39.984Z,4577
2017-10-31T07:55:10.908Z,4820
2017-10-31T07:55:40.060Z,4772
2017-10-31T07:56:10.977Z,4352
2017-10-31T07:56:40.143Z,3800
2017-10-31T07:57:11.060Z,3233
2017-10-31T07:57:40.312Z,2833
2017-10-31T07:58:11.192Z,2590
2017-10-31T07:58:40.284Z,2800
2017-10-31T07:59:11.225Z,3812
2017-10-31T07:59:40.426Z,2773
2017-10-31T08:00:11.349Z,2728
2017-10-31T08:00:40.462Z,2417
2017-10-31T08:01:11.400Z,2302
2017-10-31T08:01:40.580Z,2342
2017-10-31T08:02:11.498Z,2557
2017-10-31T08:02:40.708Z,2927
2017-10-31T08:03:11.557Z,3365
2017-10-31T08:03:40.670Z,3572
2017-10-31T08:04:11.595Z,3735
2017-10-31T08:04:40.766Z,3952
2017-10-31T08:05:11.757Z,4222
2017-10-31T08:05:40.868Z,4380
2017-10-31T08:06:11.825Z,4515
2017-10-31T08:06:40.923Z,4693
2017-10-31T08:07:11.883Z,4828
2017-10-31T08:07:41.096Z,4952
2017-10-31T08:08:41.053Z,4840
2017-10-31T08:09:12.024Z,4800
2017-10-31T08:09:41.181Z,4592
2017-10-31T08:10:12.121Z,4037
2017-10-31T08:10:41.285Z,3810
2017-10-31T08:11:12.149Z,3555
2017-10-31T08:11:41.439Z,3313
2017-10-31T08:12:12.254Z,3105
2017-10-31T08:12:41.490Z,2705
2017-10-31T08:13:12.346Z,2438
2017-10-31T08:14:12.443Z,2428
2017-10-31T08:14:41.593Z,2417
2017-10-31T08:15:12.463Z,2407
2017-10-31T08:15:41.670Z,2445
2017-10-31T08:16:12.551Z,2488
2017-10-31T08:16:41.749Z,2545
2017-10-31T08:17:12.621Z,2623
2017-10-31T08:17:41.844Z,2720
2017-10-31T08:18:12.764Z,2920
2017-10-31T08:18:41.845Z,3170
2017-10-31T08:19:12.776Z,3485
2017-10-31T08:19:41.932Z,3775
2017-10-31T08:20:12.860Z,4183
2017-10-31T08:20:42.069Z,4502
2017-10-31T08:21:12.997Z,4457
2017-10-31T08:21:42.114Z,4192
2017-10-31T08:22:13.081Z,4215
2017-10-31T08:22:42.300Z,4590
2017-10-31T08:23:13.117Z,4727
2017-10-31T08:23:42.260Z,5050
2017-10-31T08:24:13.188Z,5207
2017-10-31T08:24:42.417Z,5060
2017-10-31T08:25:13.354Z,4775
2017-10-31T08:25:42.461Z,4425
2017-10-31T08:26:13.383Z,4508
2017-10-31T08:26:42.508Z,3920
2017-10-31T08:27:13.914Z,3805
2017-10-31T08:27:42.635Z,4457
2017-10-31T08:28:13.506Z,5023
2017-10-31T08:28:42.668Z,5557
2017-10-31T08:29:13.600Z,7795
2017-10-31T08:29:42.759Z,6440
2017-10-31T08:30:13.676Z,5803
2017-10-31T08:30:42.880Z,6268
2017-10-31T08:31:13.772Z,6375
2017-10-31T08:31:42.906Z,5800
2017-10-31T08:32:13.905Z,5342
2017-10-31T08:32:43.056Z,6967
2017-10-31T08:33:13.996Z,4402
2017-10-31T08:33:43.107Z,4022
2017-10-31T08:34:14.031Z,3720
2017-10-31T08:34:43.177Z,3557
2017-10-31T08:35:14.110Z,3437
2017-10-31T08:35:43.324Z,3313
2017-10-31T08:36:14.212Z,3205
2017-10-31T08:36:43.342Z,3225
2017-10-31T08:37:14.312Z,3650
2017-10-31T08:37:43.517Z,3595
2017-10-31T08:38:14.388Z,3718
2017-10-31T08:38:43.482Z,3835
2017-10-31T08:39:14.448Z,3950
2017-10-31T08:39:43.617Z,4070
2017-10-31T08:40:14.562Z,3930
2017-10-31T08:40:43.670Z,3685
2017-10-31T08:41:14.655Z,3580
2017-10-31T08:41:43.735Z,3523
2017-10-31T08:42:14.720Z,3497
2017-10-31T08:42:43.888Z,3405
2017-10-31T08:43:14.828Z,3415
2017-10-31T08:43:43.913Z,3310
2017-10-31T08:44:14.895Z,3167
2017-10-31T08:44:44.048Z,3052
2017-10-31T08:45:14.973Z,3083
2017-10-31T08:45:44.065Z,3175
2017-10-31T08:46:15.065Z,3373
2017-10-31T08:46:44.148Z,3520
2017-10-31T08:47:15.073Z,3868
2017-10-31T08:47:44.308Z,4232
2017-10-31T08:48:15.185Z,4363
2017-10-31T08:48:44.309Z,4348
2017-10-31T08:49:15.288Z,4305
2017-10-31T08:49:44.421Z,4275
2017-10-31T08:50:15.357Z,4320
2017-10-31T08:50:44.463Z,4445
2017-10-31T08:51:15.388Z,4603
2017-10-31T08:51:44.615Z,5025
2017-10-31T08:52:15.502Z,5588
2017-10-31T08:52:44.791Z,5908
2017-10-31T08:53:15.585Z,6350
2017-10-31T08:53:44.778Z,6860
2017-10-31T08:54:15.663Z,7225
2017-10-31T08:54:44.836Z,7445
2017-10-31T08:55:15.814Z,8855
2017-10-31T08:55:44.944Z,8800
2017-10-31T08:56:15.812Z,11588
2017-10-31T08:56:44.957Z,15538
2017-10-31T08:57:15.942Z,17707
2017-10-31T08:57:45.036Z,19202
2017-10-31T08:58:15.995Z,18268
2017-10-31T08:58:45.135Z,16318
2017-10-31T08:59:16.070Z,10850
2017-10-31T08:59:45.706Z,16127
2017-10-31T09:00:16.198Z,9827
2017-10-31T09:00:45.353Z,10185
2017-10-31T09:01:16.250Z,9560
2017-10-31T09:01:45.417Z,9795
2017-10-31T09:02:16.371Z,9550
2017-10-31T09:02:45.463Z,15805
2017-10-31T09:03:16.437Z,16337
2017-10-31T09:03:45.604Z,16555
2017-10-31T09:04:16.479Z,13570
2017-10-31T09:04:45.672Z,11173
2017-10-31T09:05:16.604Z,14573
2017-10-31T09:05:45.707Z,15555
2017-10-31T09:06:16.633Z,12853
2017-10-31T09:06:45.789Z,9310
2017-10-31T09:07:16.734Z,9182
2017-10-31T09:07:45.857Z,8655
2017-10-31T09:08:16.868Z,8497
2017-10-31T09:08:45.948Z,8170
2017-10-31T09:09:16.945Z,8653
2017-10-31T09:09:46.032Z,10618
2017-10-31T09:10:17.006Z,10055
2017-10-31T09:10:46.114Z,10120
2017-10-31T09:11:17.058Z,10087
2017-10-31T09:11:46.246Z,15617
2017-10-31T09:12:17.133Z,11528
2017-10-31T09:12:46.315Z,14117
2017-10-31T09:13:17.274Z,9895
2017-10-31T09:13:46.398Z,11693
2017-10-31T09:14:17.355Z,8893
2017-10-31T09:14:46.453Z,7142
2017-10-31T09:15:17.498Z,10258
2017-10-31T09:15:46.558Z,8792
2017-10-31T09:16:17.518Z,6625
2017-10-31T09:16:46.604Z,7600
2017-10-31T09:17:17.589Z,7840
2017-10-31T09:17:46.676Z,7367
2017-10-31T09:18:17.649Z,9370
2017-10-31T09:18:46.818Z,6032
2017-10-31T09:19:17.728Z,5690
2017-10-31T09:19:46.830Z,5902
2017-10-31T09:20:17.826Z,5330
2017-10-31T09:20:46.924Z,5085
2017-10-31T09:21:17.838Z,5815
2017-10-31T09:21:46.989Z,5530
2017-10-31T09:22:17.979Z,5938
2017-10-31T09:22:47.119Z,6360
2017-10-31T09:23:18.034Z,6715
2017-10-31T09:23:47.431Z,7270
2017-10-31T09:24:18.131Z,6898
2017-10-31T09:24:47.238Z,6872
2017-10-31T09:25:18.212Z,7335
2017-10-31T09:25:47.303Z,7080
2017-10-31T09:26:18.278Z,10035
2017-10-31T09:26:47.418Z,7522
2017-10-31T09:27:18.363Z,9290
2017-10-31T09:27:47.493Z,6160
2017-10-31T09:28:18.432Z,5897
2017-10-31T09:28:47.729Z,6902
2017-10-31T09:29:18.484Z,6923
2017-10-31T09:29:47.678Z,5510
2017-10-31T09:30:18.580Z,4628
2017-10-31T09:30:47.784Z,4963
2017-10-31T09:31:18.635Z,5117
2017-10-31T09:31:47.840Z,5042
2017-10-31T09:32:18.802Z,5402
2017-10-31T09:32:47.921Z,6052
2017-10-31T09:33:18.843Z,6730
2017-10-31T09:33:48.011Z,7480
2017-10-31T09:34:18.937Z,12705
2017-10-31T09:34:48.081Z,11638
2017-10-31T09:35:18.954Z,16075
2017-10-31T09:35:48.159Z,18400
2017-10-31T09:36:19.102Z,9227
2017-10-31T09:36:48.251Z,8520
2017-10-31T09:37:19.125Z,13305
2017-10-31T09:37:48.319Z,15152
2017-10-31T09:38:19.275Z,7333
2017-10-31T09:38:48.407Z,9550
2017-10-31T09:39:19.312Z,15148
2017-10-31T09:39:48.483Z,18052
2017-10-31T09:40:19.415Z,11535
2017-10-31T09:40:48.555Z,9255
2017-10-31T09:41:19.478Z,17537
2017-10-31T09:41:48.670Z,21187
2017-10-31T09:42:19.557Z,21055
2017-10-31T09:42:48.689Z,18750
2017-10-31T09:43:19.622Z,19138
2017-10-31T09:43:48.772Z,13982
2017-10-31T09:44:19.709Z,8243
2017-10-31T09:44:48.856Z,7852
2017-10-31T09:45:19.796Z,6480
2017-10-31T09:45:48.945Z,16620
2017-10-31T09:46:19.951Z,15380
2017-10-31T09:46:49.027Z,6032
2017-10-31T09:47:20.007Z,5355
2017-10-31T09:47:49.117Z,5830
2017-10-31T09:48:20.109Z,6433
2017-10-31T09:48:49.248Z,10318
2017-10-31T09:49:20.129Z,13010
2017-10-31T09:49:49.333Z,21808
2017-10-31T09:50:20.261Z,17717
2017-10-31T09:50:49.396Z,23765
2017-10-31T09:51:20.280Z,20935
2017-10-31T09:51:49.495Z,15947
2017-10-31T09:52:20.362Z,17968
2017-10-31T09:52:49.525Z,12523
2017-10-31T09:53:20.447Z,9295
2017-10-31T09:53:49.679Z,18908
2017-10-31T09:54:20.528Z,15872
2017-10-31T09:54:49.680Z,24335
2017-10-31T09:55:20.649Z,21328
2017-10-31T09:55:49.754Z,12118
2017-10-31T09:56:20.678Z,13885
2017-10-31T09:56:49.833Z,13483
2017-10-31T09:57:20.806Z,12812
2017-10-31T09:57:49.890Z,11048
2017-10-31T09:58:20.979Z,17863
2017-10-31T09:58:49.968Z,10360
2017-10-31T09:59:20.929Z,7785
2017-10-31T09:59:50.106Z,7738
2017-10-31T10:00:21.064Z,7820
2017-10-31T10:00:50.135Z,9345
2017-10-31T10:01:21.133Z,11117
2017-10-31T10:01:50.229Z,9810
2017-10-31T10:02:21.184Z,12092
2017-10-31T10:02:50.332Z,10190
2017-10-31T10:03:21.281Z,9600
2017-10-31T10:03:50.420Z,9143
2017-10-31T10:04:21.388Z,8675
2017-10-31T10:04:50.520Z,8760
2017-10-31T10:05:21.451Z,11285
2017-10-31T10:05:50.567Z,9928
2017-10-31T10:06:21.474Z,9900
2017-10-31T10:06:50.694Z,11000
2017-10-31T10:07:21.598Z,9382
2017-10-31T10:07:50.733Z,12598
2017-10-31T10:08:21.677Z,9505
2017-10-31T10:08:50.874Z,9317
2017-10-31T10:09:21.807Z,9400
2017-10-31T10:09:50.945Z,9485
2017-10-31T10:10:21.820Z,10140
2017-10-31T10:10:51.028Z,11350
2017-10-31T10:11:21.888Z,9395
2017-10-31T10:11:51.076Z,8915
2017-10-31T10:12:21.978Z,8602
2017-10-31T10:12:51.160Z,8462
2017-10-31T10:13:22.052Z,8450
2017-10-31T10:13:51.248Z,8460
2017-10-31T10:14:22.120Z,8560
2017-10-31T10:14:51.288Z,8528
2017-10-31T10:15:22.256Z,7958
2017-10-31T10:15:51.403Z,7845
2017-10-31T10:16:22.278Z,7615
2017-10-31T10:16:51.484Z,7222
2017-10-31T10:17:22.375Z,7063
2017-10-31T10:17:51.506Z,6955
2017-10-31T10:18:22.470Z,6855
2017-10-31T10:18:51.664Z,6730
2017-10-31T10:19:22.590Z,6530
2017-10-31T10:19:51.687Z,6373
2017-10-31T10:20:22.598Z,6203
2017-10-31T10:20:51.750Z,6077
2017-10-31T10:21:22.716Z,6015
2017-10-31T10:21:51.832Z,6010
2017-10-31T10:22:22.814Z,6005
2017-10-31T10:23:22.840Z,5920
2017-10-31T10:23:51.994Z,5925
2017-10-31T10:24:52.132Z,5833
2017-10-31T10:25:23.068Z,5740
2017-10-31T10:25:52.215Z,5623
2017-10-31T10:26:23.080Z,5482
2017-10-31T10:26:52.283Z,5335
2017-10-31T10:27:23.163Z,5155
2017-10-31T10:27:52.348Z,5017
2017-10-31T10:28:23.300Z,4960
2017-10-31T10:28:52.405Z,4920
2017-10-31T10:29:23.371Z,4913
2017-10-31T10:29:52.472Z,4925
2017-10-31T10:30:23.464Z,4935
2017-10-31T10:30:52.606Z,4922
2017-10-31T10:31:23.530Z,4937
2017-10-31T10:31:52.684Z,4930
2017-10-31T10:32:23.593Z,4915
2017-10-31T10:33:23.694Z,4855
2017-10-31T10:33:52.849Z,4868
2017-10-31T10:34:23.796Z,4790
2017-10-31T10:34:52.880Z,4687
2017-10-31T10:35:23.858Z,4823
2017-10-31T10:35:52.952Z,4800
2017-10-31T10:36:23.915Z,4840
2017-10-31T10:36:53.023Z,4945
2017-10-31T10:37:23.981Z,5003
2017-10-31T10:37:53.124Z,5113
2017-10-31T10:38:24.052Z,5203
2017-10-31T10:38:53.184Z,5265
2017-10-31T10:39:24.157Z,5290
2017-10-31T10:39:53.322Z,5258
2017-10-31T10:40:24.194Z,5192
2017-10-31T10:40:53.373Z,5078
2017-10-31T10:41:24.318Z,4885
2017-10-31T10:41:53.472Z,4717
2017-10-31T10:42:24.385Z,4480
2017-10-31T10:42:53.547Z,4435
2017-10-31T10:43:24.470Z,4380
2017-10-31T10:43:53.641Z,4435
2017-10-31T10:44:24.594Z,4590
2017-10-31T10:44:53.681Z,4618
2017-10-31T10:45:24.632Z,4565
2017-10-31T10:45:53.800Z,4418
2017-10-31T10:46:24.735Z,4325
2017-10-31T10:46:53.882Z,4298
2017-10-31T10:47:24.769Z,4078
2017-10-31T10:47:53.971Z,3878
2017-10-31T10:48:24.870Z,3785
2017-10-31T10:48:54.061Z,3797
2017-10-31T10:49:24.916Z,3653
2017-10-31T10:49:54.136Z,3620
2017-10-31T10:50:25.056Z,3623
2017-10-31T10:50:54.149Z,3530
2017-10-31T10:51:25.110Z,3587
2017-10-31T10:51:54.299Z,3545
2017-10-31T10:52:25.222Z,3455
2017-10-31T10:52:54.347Z,3395
2017-10-31T10:53:25.292Z,3358
2017-10-31T10:53:54.413Z,3338
2017-10-31T10:54:25.433Z,3328
2017-10-31T10:54:54.541Z,3188
2017-10-31T10:55:25.471Z,3112
2017-10-31T10:55:54.558Z,3260
2017-10-31T10:56:25.489Z,3355
2017-10-31T10:56:54.700Z,3290
2017-10-31T10:57:25.573Z,3310
2017-10-31T10:57:54.720Z,3445
2017-10-31T10:58:25.648Z,3640
2017-10-31T10:58:54.801Z,3842
2017-10-31T10:59:25.800Z,3988
2017-10-31T10:59:54.888Z,4105
2017-10-31T11:00:25.814Z,4283
2017-10-31T11:00:54.965Z,4528
2017-10-31T11:01:25.911Z,4727
2017-10-31T11:01:55.066Z,4862
2017-10-31T11:02:25.973Z,4915
2017-10-31T11:02:55.130Z,4960
2017-10-31T11:03:26.105Z,5057
2017-10-31T11:03:55.504Z,5107
2017-10-31T11:04:26.481Z,5195
2017-10-31T11:04:56.634Z,5130
2017-10-31T11:05:27.578Z,5045
2017-10-31T11:05:57.607Z,5027
2017-10-31T11:06:28.592Z,5090
2017-10-31T11:06:58.547Z,5120
2017-10-31T11:07:29.607Z,5198
2017-10-31T11:07:59.584Z,5300
2017-10-31T11:08:30.569Z,5440
2017-10-31T11:09:00.658Z,5692
2017-10-31T11:09:31.585Z,5942
2017-10-31T11:10:01.572Z,6262
2017-10-31T11:10:32.571Z,6575
2017-10-31T11:11:01.674Z,6785
2017-10-31T11:11:32.674Z,6905
2017-10-31T11:12:01.760Z,6913
2017-10-31T11:12:32.727Z,6838
2017-10-31T11:13:01.855Z,6720
2017-10-31T11:13:32.848Z,6670
2017-10-31T11:14:01.902Z,6830
2017-10-31T11:14:32.913Z,5927
2017-10-31T11:15:01.978Z,5585
2017-10-31T11:15:33.002Z,5357
2017-10-31T11:16:02.038Z,5220
2017-10-31T11:16:33.053Z,5162
2017-10-31T11:17:02.118Z,5147
2017-10-31T11:17:33.158Z,5075
2017-10-31T11:18:02.249Z,4993
2017-10-31T11:18:33.239Z,4927
2017-10-31T11:19:02.269Z,4825
2017-10-31T11:19:33.287Z,4780
2017-10-31T11:20:03.307Z,4852
2017-10-31T11:20:33.370Z,5092
2017-10-31T11:21:03.369Z,5207
2017-10-31T11:21:33.358Z,5400
2017-10-31T11:22:03.414Z,5425
2017-10-31T11:22:33.461Z,5520
2017-10-31T11:23:03.457Z,5537
2017-10-31T11:23:33.434Z,5533
2017-10-31T11:24:03.513Z,5545
2017-10-31T11:25:03.481Z,5475
2017-10-31T11:25:33.548Z,5408
2017-10-31T11:26:03.577Z,5320
2017-10-31T11:26:34.537Z,5227
2017-10-31T11:27:04.580Z,5182
2017-10-31T11:27:34.580Z,5213
2017-10-31T11:28:04.650Z,5195
2017-10-31T11:28:34.642Z,5198
2017-10-31T11:29:04.656Z,5225
2017-10-31T11:29:34.712Z,5265
2017-10-31T11:30:04.718Z,5200
2017-10-31T11:30:34.783Z,5198
2017-10-31T11:31:04.780Z,5083
2017-10-31T11:31:34.789Z,4815
2017-10-31T11:32:04.790Z,4845
2017-10-31T11:32:34.822Z,5035
2017-10-31T11:33:04.826Z,5012
2017-10-31T11:33:34.859Z,4915
2017-10-31T11:34:04.930Z,5027
2017-10-31T11:34:34.919Z,5125
2017-10-31T11:35:04.914Z,5140
2017-10-31T11:35:34.934Z,5182
2017-10-31T11:36:04.943Z,5248
2017-10-31T11:36:34.983Z,5230
2017-10-31T11:37:04.980Z,5123
2017-10-31T11:37:35.004Z,5035
2017-10-31T11:38:05.027Z,4980
2017-10-31T11:38:35.053Z,4807
2017-10-31T11:39:05.066Z,4770
2017-10-31T11:39:35.196Z,4852
2017-10-31T11:40:05.190Z,4862
2017-10-31T11:40:36.197Z,4900
2017-10-31T11:41:06.232Z,4940
2017-10-31T11:41:37.185Z,4942
2017-10-31T11:42:37.252Z,4913
2017-10-31T11:43:07.241Z,4860
2017-10-31T11:43:37.279Z,4838
2017-10-31T11:44:07.269Z,4823
2017-10-31T11:44:38.854Z,4753
2017-10-31T11:45:07.335Z,4655
2017-10-31T11:45:38.312Z,4615
2017-10-31T11:46:08.341Z,4555
2017-10-31T11:46:38.417Z,4468
2017-10-31T11:47:08.435Z,4292
2017-10-31T11:47:38.404Z,4355
2017-10-31T11:48:08.465Z,4305
2017-10-31T11:48:38.484Z,4350
2017-10-31T11:49:08.480Z,4723
2017-10-31T11:49:38.549Z,5102
2017-10-31T11:50:08.549Z,5512
2017-10-31T11:50:38.543Z,5758
2017-10-31T11:51:08.580Z,5798
2017-10-31T11:51:38.600Z,5728
2017-10-31T11:52:08.622Z,5983
2017-10-31T11:52:38.644Z,6365
2017-10-31T11:53:08.639Z,6910
2017-10-31T11:53:38.678Z,6750
2017-10-31T11:54:08.671Z,6225
2017-10-31T11:54:38.782Z,5743
2017-10-31T11:55:08.737Z,5327
2017-10-31T11:55:38.761Z,5180
2017-10-31T11:56:08.801Z,4948
2017-10-31T11:56:38.809Z,4570
2017-10-31T11:57:08.800Z,4330
2017-10-31T11:57:38.809Z,4075
2017-10-31T11:58:08.825Z,3930
2017-10-31T11:58:39.812Z,3770
2017-10-31T11:59:09.830Z,3668
2017-10-31T11:59:39.899Z,3532
2017-10-31T12:00:09.855Z,3443
2017-10-31T12:00:40.893Z,3580
2017-10-31T12:01:10.891Z,3600
2017-10-31T12:01:40.918Z,3520
2017-10-31T12:02:10.925Z,3403
2017-10-31T12:02:40.948Z,3380
2017-10-31T12:03:10.960Z,3405
2017-10-31T12:03:40.982Z,3508
2017-10-31T12:04:11.120Z,3525
2017-10-31T12:04:42.075Z,3478
2017-10-31T12:05:12.107Z,3470
2017-10-31T12:05:43.051Z,3435
2017-10-31T12:06:13.071Z,3403
2017-10-31T12:06:43.078Z,3388
2017-10-31T12:07:13.105Z,3398
2017-10-31T12:07:43.114Z,3420
2017-10-31T12:08:13.132Z,3455
2017-10-31T12:08:44.178Z,3523
2017-10-31T12:09:14.156Z,3595
2017-10-31T12:09:44.241Z,3668
2017-10-31T12:10:14.275Z,3728
2017-10-31T12:10:44.259Z,3773
2017-10-31T12:11:14.227Z,3815
2017-10-31T12:11:45.305Z,3855
2017-10-31T12:12:15.315Z,3910
2017-10-31T12:12:46.360Z,3983
2017-10-31T12:13:16.437Z,3970
2017-10-31T12:13:46.332Z,3898
2017-10-31T12:14:16.349Z,3857
2017-10-31T12:14:46.400Z,3770
2017-10-31T12:15:16.407Z,3487
2017-10-31T12:15:46.469Z,3175
2017-10-31T12:16:16.410Z,2992
2017-10-31T12:16:47.477Z,2762
2017-10-31T12:17:17.430Z,2518
2017-10-31T12:17:47.495Z,2265
2017-10-31T12:18:17.502Z,2085
2017-10-31T12:18:48.523Z,1963
2017-10-31T12:19:18.503Z,1855
2017-10-31T12:19:48.557Z,1817
2017-10-31T12:20:18.539Z,1845
2017-10-31T12:21:19.610Z,1738
2017-10-31T12:21:49.641Z,1667
2017-10-31T12:22:19.614Z,1690
2017-10-31T12:22:49.629Z,1790
2017-10-31T12:23:19.720Z,2042
2017-10-31T12:23:49.668Z,2345
2017-10-31T12:24:19.698Z,2415
2017-10-31T12:24:49.821Z,2233
2017-10-31T12:25:19.777Z,2072
2017-10-31T12:25:49.792Z,1820
2017-10-31T12:26:19.805Z,1670
2017-10-31T12:27:19.845Z,1687
2017-10-31T12:27:50.917Z,1755
2017-10-31T12:28:20.916Z,1802
2017-10-31T12:28:50.992Z,1673
2017-10-31T12:29:20.951Z,1620
2017-10-31T12:29:51.024Z,1645
2017-10-31T12:30:20.986Z,1670
2017-10-31T12:30:50.992Z,1618
2017-10-31T12:31:21.027Z,1580
2017-10-31T12:31:51.065Z,1543
2017-10-31T12:32:21.026Z,1532
2017-10-31T12:32:51.115Z,1540
2017-10-31T12:33:21.126Z,1453
2017-10-31T12:33:51.090Z,1295
2017-10-31T12:34:21.172Z,1187
2017-10-31T12:34:52.690Z,1123
2017-10-31T12:35:21.186Z,1082
2017-10-31T12:35:51.243Z,1078
2017-10-31T12:36:21.222Z,1085
2017-10-31T12:36:51.275Z,1070
2017-10-31T12:37:21.267Z,1015
2017-10-31T12:37:51.312Z,940
2017-10-31T12:38:21.324Z,880
2017-10-31T12:38:51.276Z,835
2017-10-31T12:39:21.333Z,795
2017-10-31T12:39:51.433Z,758
2017-10-31T12:40:21.384Z,718
2017-10-31T12:40:52.374Z,695
2017-10-31T12:41:22.407Z,685
2017-10-31T12:41:52.446Z,632
2017-10-31T12:42:22.433Z,613
2017-10-31T12:42:52.430Z,623
2017-10-31T12:43:22.517Z,617
2017-10-31T12:43:52.535Z,608
2017-10-31T12:44:22.543Z,613
2017-10-31T12:44:52.570Z,662
2017-10-31T12:45:22.518Z,750
2017-10-31T12:45:52.566Z,840
2017-10-31T12:46:22.625Z,975
2017-10-31T12:46:52.596Z,1123
2017-10-31T12:47:22.637Z,1190
2017-10-31T12:47:52.647Z,1130
2017-10-31T12:48:22.621Z,1022
2017-10-31T12:48:53.681Z,940
2017-10-31T12:49:23.692Z,913
2017-10-31T12:49:53.710Z,917
2017-10-31T12:50:23.735Z,935
2017-10-31T12:50:53.726Z,932
2017-10-31T12:51:23.815Z,940
2017-10-31T12:51:53.776Z,985
2017-10-31T12:52:23.842Z,1007
2017-10-31T12:53:23.851Z,985
2017-10-31T12:53:53.830Z,1015
2017-10-31T12:54:23.897Z,1020
2017-10-31T12:54:53.919Z,998